createdAt,value
2018-12-25T00:02:10.235Z,99.90
2018-12-25T00:04:40.702Z,99.90
2018-12-25T00:07:11.037Z,99.90
2018-12-25T00:09:41.367Z,99.90
2018-12-25T00:12:11.802Z,99.90
2018-12-25T00:14:42.256Z,99.90
2018-12-25T00:17:12.729Z,99.90
2018-12-25T00:19:43.087Z,99.90
2018-12-25T00:22:14.770Z,99.90
2018-12-25T00:24:45.148Z,99.90
2018-12-25T00:27:15.482Z,99.90
2018-12-25T00:29:45.965Z,99.90
2018-12-25T00:32:16.408Z,99.90
2018-12-25T00:34:46.738Z,99.90
2018-12-25T00:37:17.107Z,99.90
2018-12-25T00:39:48.458Z,99.90
2018-12-25T00:42:19.022Z,99.90
2018-12-25T00:44:49.451Z,99.90
2018-12-25T00:47:20.311Z,99.90
2018-12-25T00:49:52.400Z,99.90
2018-12-25T00:52:22.819Z,99.90
2018-12-25T00:54:53.288Z,99.90
2018-12-25T00:57:29.774Z,99.90
2018-12-25T01:00:00.214Z,99.90
2018-12-25T01:02:30.580Z,99.90
2018-12-25T01:05:00.997Z,99.90
2018-12-25T01:07:31.411Z,99.90
2018-12-25T01:10:01.783Z,99.90
2018-12-25T01:12:32.127Z,99.90
2018-12-25T01:15:02.545Z,99.90
2018-12-25T01:17:32.997Z,99.90
2018-12-25T01:20:03.596Z,99.90
2018-12-25T01:22:34.682Z,99.90
2018-12-25T01:25:05.226Z,99.90
2018-12-25T01:27:36.878Z,99.90
2018-12-25T01:30:07.708Z,99.90
2018-12-25T01:32:40.939Z,99.90
2018-12-25T01:35:11.359Z,99.90
2018-12-25T01:37:41.808Z,99.90
2018-12-25T01:40:12.308Z,99.90
2018-12-25T01:42:42.676Z,99.90
2018-12-25T01:45:24.846Z,99.90
2018-12-25T01:47:55.225Z,99.90
2018-12-25T01:50:25.588Z,99.90
2018-12-25T01:52:56.242Z,99.90
2018-12-25T01:55:26.572Z,99.90
2018-12-25T01:57:56.910Z,99.90
2018-12-25T02:00:27.307Z,99.90
2018-12-25T02:02:58.610Z,99.90
2018-12-25T02:05:28.982Z,99.90
2018-12-25T02:07:59.429Z,99.90
2018-12-25T02:10:29.773Z,99.90
2018-12-25T02:13:00.109Z,99.90
2018-12-25T02:15:30.435Z,99.90
2018-12-25T02:18:00.788Z,99.90
2018-12-25T02:20:31.255Z,99.90
2018-12-25T02:23:01.915Z,99.90
2018-12-25T02:25:32.235Z,99.90
2018-12-25T02:28:02.599Z,99.90
2018-12-25T02:30:33.034Z,99.90
2018-12-25T02:33:03.495Z,99.90
2018-12-25T02:35:33.897Z,99.90
2018-12-25T02:38:05.083Z,99.90
2018-12-25T02:40:35.411Z,99.90
2018-12-25T02:43:05.977Z,99.90
2018-12-25T02:45:36.414Z,99.90
2018-12-25T02:48:07.279Z,99.90
2018-12-25T02:50:37.689Z,99.90
2018-12-25T02:53:08.359Z,99.90
2018-12-25T02:55:38.715Z,99.90
2018-12-25T02:58:09.371Z,99.90
2018-12-25T03:00:39.914Z,99.90
2018-12-25T03:03:10.412Z,99.90
2018-12-25T03:05:40.840Z,99.90
2018-12-25T03:08:11.458Z,99.90
2018-12-25T03:10:41.896Z,99.90
2018-12-25T03:13:12.360Z,99.90
2018-12-25T03:15:42.792Z,99.90
2018-12-25T03:18:13.146Z,99.90
2018-12-25T03:20:44.305Z,99.90
2018-12-25T03:23:15.511Z,99.90
2018-12-25T03:25:45.897Z,99.90
2018-12-25T03:28:16.380Z,99.90
2018-12-25T03:30:46.879Z,99.90
2018-12-25T03:33:17.320Z,99.90
2018-12-25T03:35:47.792Z,99.90
2018-12-25T03:38:18.239Z,99.90
2018-12-25T03:40:48.988Z,99.90
2018-12-25T03:43:19.407Z,99.90
2018-12-25T03:45:49.785Z,99.90
2018-12-25T03:48:20.131Z,99.90
2018-12-25T03:50:50.876Z,99.90
2018-12-25T03:53:21.314Z,99.90
2018-12-25T03:55:53.491Z,99.90
2018-12-25T03:58:23.830Z,99.90
2018-12-25T04:00:54.202Z,99.90
2018-12-25T04:03:24.627Z,99.90
2018-12-25T04:05:55.107Z,99.90
2018-12-25T04:08:26.765Z,99.90
2018-12-25T04:10:57.221Z,99.90
2018-12-25T04:13:28.488Z,99.90
2018-12-25T04:15:58.898Z,99.90
2018-12-25T04:18:29.619Z,99.90
2018-12-25T04:21:01.673Z,99.90
2018-12-25T04:23:32.755Z,99.90
2018-12-25T04:26:03.197Z,99.90
2018-12-25T04:28:34.450Z,99.90
2018-12-25T04:31:04.828Z,99.90
2018-12-25T04:33:35.184Z,99.90
2018-12-25T04:36:05.660Z,99.90
2018-12-25T04:38:36.075Z,99.90
2018-12-25T04:41:06.431Z,99.90
2018-12-25T04:43:36.754Z,99.90
2018-12-25T04:46:07.109Z,99.90
2018-12-25T04:48:37.357Z,99.90
2018-12-25T04:51:07.847Z,99.90
2018-12-25T04:53:38.133Z,99.90
2018-12-25T04:56:08.477Z,99.90
2018-12-25T04:58:39.423Z,99.90
2018-12-25T05:01:09.798Z,99.90
2018-12-25T05:03:40.272Z,99.90
2018-12-25T05:06:11.375Z,99.90
2018-12-25T05:08:41.715Z,99.90
2018-12-25T05:11:12.070Z,99.90
2018-12-25T05:13:42.420Z,99.90
2018-12-25T05:16:13.012Z,99.90
2018-12-25T05:18:44.122Z,99.90
2018-12-25T05:21:14.474Z,99.90
2018-12-25T05:23:45.525Z,99.90
2018-12-25T05:26:15.867Z,99.90
2018-12-25T05:28:46.224Z,99.90
2018-12-25T05:31:17.523Z,99.90
2018-12-25T05:33:49.359Z,99.90
2018-12-25T05:36:19.703Z,99.90
2018-12-25T05:38:50.098Z,99.90
2018-12-25T05:41:20.685Z,99.90
2018-12-25T05:43:51.035Z,99.90
2018-12-25T05:46:22.345Z,99.90
2018-12-25T05:48:52.585Z,99.90
2018-12-25T05:51:23.013Z,99.90
2018-12-25T05:53:53.426Z,99.90
2018-12-25T05:56:24.907Z,99.90
2018-12-25T05:58:55.968Z,99.90
2018-12-25T06:01:26.922Z,99.90
2018-12-25T06:03:57.587Z,99.90
2018-12-25T06:06:28.003Z,99.90
2018-12-25T06:08:58.508Z,99.90
2018-12-25T06:11:29.218Z,99.90
2018-12-25T06:14:00.566Z,99.90
2018-12-25T06:16:30.988Z,99.90
2018-12-25T06:19:01.367Z,99.90
2018-12-25T06:21:31.732Z,99.90
2018-12-25T06:24:03.234Z,99.90
2018-12-25T06:26:33.649Z,99.90
2018-12-25T06:29:04.040Z,99.90
2018-12-25T06:31:34.483Z,99.90
2018-12-25T06:34:04.865Z,99.90
2018-12-25T06:36:35.323Z,99.90
2018-12-25T06:39:07.756Z,99.90
2018-12-25T06:41:38.055Z,99.90
2018-12-25T06:44:08.451Z,99.90
2018-12-25T06:46:38.822Z,99.90
2018-12-25T06:49:09.888Z,99.90
2018-12-25T06:51:43.005Z,99.90
2018-12-25T06:54:13.460Z,99.90
2018-12-25T06:56:43.914Z,99.90
2018-12-25T06:59:14.235Z,99.90
2018-12-25T07:01:44.603Z,99.90
2018-12-25T07:04:15.014Z,99.90
2018-12-25T07:06:47.000Z,99.90
2018-12-25T07:09:17.492Z,99.90
2018-12-25T07:11:47.910Z,99.90
2018-12-25T07:14:18.239Z,99.90
2018-12-25T07:16:48.622Z,99.90
2018-12-25T07:19:19.024Z,99.90
2018-12-25T07:21:51.019Z,99.90
2018-12-25T07:24:22.012Z,99.90
2018-12-25T07:26:52.417Z,99.90
2018-12-25T07:29:22.762Z,99.90
2018-12-25T07:31:55.075Z,99.90
2018-12-25T07:34:25.799Z,99.90
2018-12-25T07:36:56.161Z,99.90
2018-12-25T07:39:26.494Z,99.90
2018-12-25T07:41:57.251Z,99.90
2018-12-25T07:44:28.402Z,99.90
2018-12-25T07:46:58.879Z,99.90
2018-12-25T07:49:29.298Z,99.90
2018-12-25T07:51:59.637Z,99.90
2018-12-25T07:54:30.907Z,99.90
2018-12-25T07:57:02.061Z,99.90
2018-12-25T07:59:32.820Z,99.90
2018-12-25T08:02:03.397Z,99.90
2018-12-25T08:04:33.694Z,99.90
2018-12-25T08:07:04.040Z,99.90
2018-12-25T08:09:34.651Z,99.90
2018-12-25T08:12:05.040Z,99.90
2018-12-25T08:14:36.402Z,99.90
2018-12-25T08:17:06.838Z,99.90
2018-12-25T08:19:37.198Z,99.90
2018-12-25T08:22:07.636Z,99.90
2018-12-25T08:24:41.515Z,99.90
2018-12-25T08:27:11.879Z,99.90
2018-12-25T08:29:43.878Z,99.90
2018-12-25T08:32:18.337Z,99.90
2018-12-25T08:34:51.309Z,99.90
2018-12-25T08:37:22.111Z,99.90
2018-12-25T08:40:00.408Z,99.90
2018-12-25T08:42:30.848Z,99.90
2018-12-25T08:45:02.029Z,99.90
2018-12-25T08:47:32.363Z,99.90
2018-12-25T08:50:02.754Z,99.90
2018-12-25T08:52:33.163Z,99.90
2018-12-25T08:55:03.798Z,99.90
2018-12-25T08:57:34.962Z,99.90
2018-12-25T09:00:08.835Z,99.90
2018-12-25T09:02:39.596Z,99.90
2018-12-25T09:05:10.048Z,99.90
2018-12-25T09:07:40.474Z,99.90
2018-12-25T09:10:10.874Z,99.90
2018-12-25T09:12:41.385Z,99.90
2018-12-25T09:15:12.127Z,99.90
2018-12-25T09:17:42.504Z,99.90
2018-12-25T09:20:13.837Z,99.90
2018-12-25T09:22:44.323Z,99.90
2018-12-25T09:25:15.115Z,99.90
2018-12-25T09:27:45.600Z,99.90
2018-12-25T09:30:15.962Z,99.90
2018-12-25T09:32:46.340Z,99.90
2018-12-25T09:35:16.751Z,99.90
2018-12-25T09:37:47.240Z,99.90
2018-12-25T09:40:19.651Z,99.90
2018-12-25T09:42:50.059Z,99.90
2018-12-25T09:45:20.521Z,99.90
2018-12-25T09:47:50.979Z,96.50
2018-12-25T09:50:21.448Z,89.80
2018-12-25T09:52:52.311Z,86.00
2018-12-25T09:55:22.793Z,79.00
2018-12-25T09:57:53.223Z,73.80
2018-12-25T10:00:23.560Z,71.30
2018-12-25T10:02:54.019Z,70.70
2018-12-25T10:05:24.971Z,69.00
2018-12-25T10:07:59.668Z,67.90
2018-12-25T10:10:31.434Z,65.10
2018-12-25T10:13:01.830Z,63.10
2018-12-25T10:15:34.942Z,62.60
2018-12-25T10:18:05.413Z,70.60
2018-12-25T10:20:35.811Z,69.00
2018-12-25T10:23:06.275Z,63.20
2018-12-25T10:25:38.128Z,59.60
2018-12-25T10:28:08.500Z,57.50
2018-12-25T10:30:38.978Z,57.10
2018-12-25T10:33:09.387Z,63.30
2018-12-25T10:35:39.847Z,73.30
2018-12-25T10:38:11.004Z,70.10
2018-12-25T10:40:41.384Z,80.50
2018-12-25T10:43:11.808Z,91.10
2018-12-25T10:45:42.224Z,98.20
2018-12-25T10:48:12.769Z,95.50
2018-12-25T10:50:43.396Z,96.00
2018-12-25T10:53:13.673Z,92.90
2018-12-25T10:55:44.316Z,97.40
2018-12-25T10:58:14.811Z,99.90
2018-12-25T11:00:49.352Z,98.70
2018-12-25T11:03:19.779Z,99.90
2018-12-25T11:05:51.215Z,99.90
2018-12-25T11:08:21.687Z,96.30
2018-12-25T11:10:52.127Z,91.60
2018-12-25T11:13:22.743Z,93.00
2018-12-25T11:15:53.744Z,90.40
2018-12-25T11:18:24.169Z,69.90
2018-12-25T11:20:54.555Z,60.30
2018-12-25T11:23:24.987Z,55.10
2018-12-25T11:25:55.873Z,53.00
2018-12-25T11:28:26.266Z,51.00
2018-12-25T11:30:56.906Z,48.50
2018-12-25T11:33:27.396Z,47.10
2018-12-25T11:35:57.813Z,47.10
2018-12-25T11:38:28.259Z,48.20
2018-12-25T11:40:58.705Z,52.90
2018-12-25T11:43:29.194Z,49.40
2018-12-25T11:45:59.795Z,48.80
2018-12-25T11:48:30.150Z,48.30
2018-12-25T11:51:00.562Z,46.60
2018-12-25T11:53:31.082Z,46.30
2018-12-25T11:56:01.575Z,45.10
2018-12-25T11:58:32.077Z,45.60
2018-12-25T12:01:02.487Z,49.30
2018-12-25T12:03:32.915Z,50.10
2018-12-25T12:06:03.341Z,56.90
2018-12-25T12:08:33.792Z,57.20
2018-12-25T12:11:05.875Z,60.50
2018-12-25T12:13:36.217Z,65.00
2018-12-25T12:16:07.054Z,72.00
2018-12-25T12:18:37.640Z,78.40
2018-12-25T12:21:08.958Z,86.80
2018-12-25T12:23:39.421Z,84.80
2018-12-25T12:26:10.668Z,90.50
2018-12-25T12:28:41.265Z,92.10
2018-12-25T12:31:11.789Z,92.20
2018-12-25T12:33:42.283Z,93.60
2018-12-25T12:36:12.705Z,94.90
2018-12-25T12:38:43.368Z,97.60
2018-12-25T12:41:13.686Z,91.10
2018-12-25T12:43:45.123Z,88.20
2018-12-25T12:46:15.995Z,71.80
2018-12-25T12:48:46.474Z,72.70
2018-12-25T12:51:17.024Z,68.50
2018-12-25T12:53:47.468Z,66.30
2018-12-25T12:56:18.631Z,67.60
2018-12-25T12:58:49.075Z,66.30
2018-12-25T13:01:19.547Z,58.10
2018-12-25T13:03:49.976Z,60.20
2018-12-25T13:06:20.437Z,59.30
2018-12-25T13:08:50.895Z,57.40
2018-12-25T13:11:21.342Z,54.30
2018-12-25T13:13:51.956Z,52.70
2018-12-25T13:16:22.373Z,53.00
2018-12-25T13:18:53.606Z,62.00
2018-12-25T13:21:24.910Z,69.90
2018-12-25T13:23:57.459Z,77.50
2018-12-25T13:26:28.915Z,85.70
2018-12-25T13:29:05.455Z,90.80
2018-12-25T13:31:37.443Z,92.80
2018-12-25T13:34:11.721Z,94.20
2018-12-25T13:36:47.248Z,96.50
2018-12-25T13:39:19.828Z,96.50
2018-12-25T13:41:50.967Z,99.30
2018-12-25T13:44:22.017Z,99.90
2018-12-25T13:46:54.972Z,99.90
2018-12-25T13:49:29.977Z,99.90
2018-12-25T13:52:02.059Z,99.90
2018-12-25T13:54:33.847Z,99.90
2018-12-25T13:57:06.120Z,99.90
2018-12-25T13:59:37.951Z,99.90
2018-12-25T14:02:11.076Z,99.90
2018-12-25T14:04:44.795Z,99.90
2018-12-25T14:07:17.281Z,99.90
2018-12-25T14:09:49.594Z,99.90
2018-12-25T14:12:20.832Z,99.90
2018-12-25T14:14:53.626Z,99.90
2018-12-25T14:17:30.689Z,99.90
2018-12-25T14:20:05.442Z,99.90
2018-12-25T14:22:37.540Z,99.90
2018-12-25T14:25:08.858Z,99.90
2018-12-25T14:27:39.859Z,99.90
2018-12-25T14:30:12.907Z,99.90
2018-12-25T14:32:43.387Z,99.90
2018-12-25T14:35:15.408Z,99.90
2018-12-25T14:37:45.881Z,99.90
2018-12-25T14:40:17.643Z,99.90
2018-12-25T14:42:48.360Z,99.90
2018-12-25T14:45:23.108Z,99.90
2018-12-25T14:47:53.481Z,99.90
2018-12-25T14:50:24.864Z,99.90
2018-12-25T14:53:02.089Z,99.90
2018-12-25T14:55:35.538Z,99.90
2018-12-25T14:58:08.020Z,99.90
2018-12-25T15:00:39.263Z,99.90
2018-12-25T15:03:10.372Z,99.90
2018-12-25T15:05:43.379Z,99.90
2018-12-25T15:08:16.178Z,99.90
2018-12-25T15:13:08.471Z,99.90
2018-12-25T15:15:38.815Z,99.90
2018-12-25T15:18:09.319Z,99.90
2018-12-25T15:20:39.792Z,99.90
2018-12-25T15:23:10.268Z,99.90
2018-12-25T15:25:40.587Z,99.90
2018-12-25T15:28:11.232Z,99.90
2018-12-25T15:30:41.620Z,99.90
2018-12-25T15:33:12.054Z,99.90
2018-12-25T15:35:42.502Z,99.90
2018-12-25T15:38:13.258Z,99.90
2018-12-25T15:40:43.576Z,99.90
2018-12-25T15:43:14.004Z,99.90
2018-12-25T15:45:44.410Z,99.90
2018-12-25T15:48:17.269Z,99.90
2018-12-25T15:50:47.669Z,99.90
2018-12-25T15:53:18.546Z,99.90
2018-12-25T15:55:49.239Z,99.90
2018-12-25T15:58:21.980Z,99.90
2018-12-25T16:00:52.367Z,99.90
2018-12-25T16:03:23.193Z,99.90
2018-12-25T16:05:53.531Z,99.90
2018-12-25T16:08:23.919Z,99.90
2018-12-25T16:10:54.345Z,99.90
2018-12-25T16:13:25.107Z,99.90
2018-12-25T16:15:55.788Z,99.90
2018-12-25T16:18:26.121Z,99.90
2018-12-25T16:20:56.560Z,99.90
2018-12-25T16:23:26.994Z,99.90
2018-12-25T16:25:57.871Z,99.90
2018-12-25T16:28:28.319Z,99.90
2018-12-25T16:30:58.733Z,99.90
2018-12-25T16:33:29.100Z,99.90
2018-12-25T16:35:59.646Z,99.90
2018-12-25T16:38:30.099Z,99.90
2018-12-25T16:41:00.947Z,99.90
2018-12-25T16:43:31.403Z,99.90
2018-12-25T16:46:02.107Z,99.90
2018-12-25T16:48:32.493Z,99.90
2018-12-25T16:51:03.583Z,99.90
2018-12-25T16:53:34.816Z,99.90
2018-12-25T16:56:05.309Z,99.90
2018-12-25T16:58:38.333Z,99.90
2018-12-25T17:01:08.819Z,99.90
2018-12-25T17:03:39.240Z,99.90
2018-12-25T17:06:09.715Z,99.90
2018-12-25T17:08:40.152Z,99.90
2018-12-25T17:11:11.310Z,99.90
2018-12-25T17:13:41.658Z,99.90
2018-12-25T17:16:13.647Z,99.90
2018-12-25T17:18:45.060Z,99.90
2018-12-25T17:21:16.759Z,99.90
2018-12-25T17:23:47.924Z,99.90
2018-12-25T17:26:18.239Z,99.90
2018-12-25T17:28:48.894Z,99.90
2018-12-25T17:31:21.821Z,99.90
2018-12-25T17:33:52.289Z,99.90
2018-12-25T17:36:22.691Z,99.90
2018-12-25T17:38:53.291Z,99.90
2018-12-25T17:41:23.691Z,99.90
2018-12-25T17:43:54.348Z,99.90
2018-12-25T17:46:24.763Z,99.90
2018-12-25T17:48:55.238Z,99.90
2018-12-25T17:51:25.852Z,99.90
2018-12-25T17:53:56.235Z,99.90
2018-12-25T17:56:26.576Z,99.90
2018-12-25T17:58:57.253Z,99.90
2018-12-25T18:01:27.682Z,99.90
2018-12-25T18:03:58.151Z,99.90
2018-12-25T18:06:28.559Z,99.90
2018-12-25T18:08:58.907Z,99.90
2018-12-25T18:11:29.243Z,99.90
2018-12-25T18:13:59.531Z,99.90
2018-12-25T18:16:30.209Z,99.90
2018-12-25T18:19:00.967Z,99.90
2018-12-25T18:21:33.187Z,99.90
2018-12-25T18:24:03.557Z,99.90
2018-12-25T18:26:33.998Z,99.90
2018-12-25T18:29:04.514Z,99.90
2018-12-25T18:31:34.908Z,99.90
2018-12-25T18:34:05.720Z,99.90
2018-12-25T18:36:36.047Z,99.90
2018-12-25T18:39:07.635Z,99.90
2018-12-25T18:41:37.997Z,99.90
2018-12-25T18:44:09.275Z,99.90
2018-12-25T18:46:39.682Z,99.90
2018-12-25T18:49:10.157Z,99.90
2018-12-25T18:51:40.571Z,99.90
2018-12-25T18:54:11.763Z,99.90
2018-12-25T18:56:42.183Z,99.90
2018-12-25T18:59:12.834Z,99.90
2018-12-25T19:01:43.192Z,99.90
2018-12-25T19:04:13.624Z,99.90
2018-12-25T19:06:43.957Z,99.90
2018-12-25T19:09:14.499Z,99.90
2018-12-25T19:11:45.056Z,99.90
2018-12-25T19:14:15.604Z,99.90
2018-12-25T19:16:48.190Z,99.90
2018-12-25T19:19:18.684Z,99.90
2018-12-25T19:21:49.034Z,99.90
2018-12-25T19:24:19.562Z,99.90
2018-12-25T19:26:50.189Z,99.90
2018-12-25T19:29:20.767Z,99.90
2018-12-25T19:31:51.199Z,99.90
2018-12-25T19:34:21.648Z,99.90
2018-12-25T19:36:52.205Z,99.90
2018-12-25T19:39:22.666Z,99.90
2018-12-25T19:41:54.787Z,99.90
2018-12-25T19:44:25.153Z,99.90
2018-12-25T19:46:55.616Z,99.90
2018-12-25T19:49:26.265Z,99.90
2018-12-25T19:51:56.778Z,99.90
2018-12-25T19:54:27.312Z,99.90
2018-12-25T19:56:57.705Z,99.90
2018-12-25T19:59:28.727Z,99.90
2018-12-25T20:01:59.159Z,99.90
2018-12-25T20:04:56.305Z,99.90
2018-12-25T20:07:54.182Z,99.90
2018-12-25T20:11:03.271Z,99.90
2018-12-25T20:14:22.455Z,99.90
2018-12-25T20:17:18.206Z,99.90
2018-12-25T20:20:08.059Z,99.90
2018-12-25T20:23:13.377Z,99.90
2018-12-25T20:26:08.067Z,99.90
2018-12-25T20:29:34.796Z,99.90
2018-12-25T20:32:25.358Z,99.90
2018-12-25T20:35:16.540Z,99.90
2018-12-25T20:38:43.159Z,99.90
2018-12-25T20:41:46.639Z,99.90
2018-12-25T20:45:02.863Z,99.90
2018-12-25T20:48:24.248Z,99.90
2018-12-25T20:52:03.554Z,99.90
2018-12-25T20:55:33.699Z,99.90
2018-12-25T20:58:38.605Z,99.90
2018-12-25T21:01:59.784Z,99.90
2018-12-25T21:05:03.672Z,99.90
2018-12-25T21:08:13.099Z,99.90
2018-12-25T21:11:43.344Z,99.90
2018-12-25T21:14:47.872Z,99.90
2018-12-25T21:17:47.334Z,99.90
2018-12-25T21:21:10.596Z,99.90
2018-12-25T21:24:16.538Z,99.90
2018-12-25T21:27:31.665Z,99.90
2018-12-25T21:30:06.808Z,99.90
2018-12-25T21:32:42.346Z,99.90
2018-12-25T21:35:19.027Z,99.90
2018-12-25T21:37:50.062Z,99.90
2018-12-25T21:40:20.888Z,99.90
2018-12-25T21:42:52.374Z,99.90
2018-12-25T21:45:23.315Z,99.90
2018-12-25T21:47:55.063Z,99.90
2018-12-25T21:50:25.541Z,99.90
2018-12-25T21:52:56.076Z,99.90
2018-12-25T21:55:27.006Z,99.90
2018-12-25T21:57:57.972Z,99.90
2018-12-25T22:00:31.776Z,99.90
2018-12-25T22:03:03.714Z,99.90
2018-12-25T22:05:35.292Z,99.90
2018-12-25T22:08:05.675Z,99.90
2018-12-25T22:10:36.279Z,99.90
2018-12-25T22:13:06.864Z,99.90
2018-12-25T22:15:38.655Z,99.90
2018-12-25T22:18:10.861Z,99.90
2018-12-25T22:20:41.701Z,99.90
2018-12-25T22:23:12.181Z,99.90
2018-12-25T22:25:42.908Z,99.90
2018-12-25T22:28:14.727Z,99.90
2018-12-25T22:30:45.334Z,99.90
2018-12-25T22:33:17.233Z,99.90
2018-12-25T22:35:47.613Z,99.90
2018-12-25T22:38:19.223Z,99.90
2018-12-25T22:40:49.686Z,99.90
2018-12-25T22:43:22.243Z,99.90
2018-12-25T22:45:52.672Z,99.90
2018-12-25T22:48:23.863Z,99.90
2018-12-25T22:50:54.273Z,99.90
2018-12-25T22:53:25.039Z,99.90
2018-12-25T22:55:55.485Z,99.90
2018-12-25T22:58:26.647Z,99.90
2018-12-25T23:00:57.145Z,99.90
2018-12-25T23:03:28.346Z,99.90
2018-12-25T23:05:58.696Z,99.90
2018-12-25T23:08:29.148Z,99.90
2018-12-25T23:10:59.611Z,99.90
2018-12-25T23:13:29.964Z,99.90
2018-12-25T23:16:00.453Z,99.90
2018-12-25T23:18:30.862Z,99.90
2018-12-25T23:21:01.288Z,99.90
2018-12-25T23:23:33.256Z,99.90
2018-12-25T23:26:03.778Z,99.90
2018-12-25T23:28:34.234Z,99.90
2018-12-25T23:31:04.652Z,99.90
2018-12-25T23:33:35.092Z,99.90
2018-12-25T23:36:05.504Z,99.90
2018-12-25T23:38:35.947Z,99.90
2018-12-25T23:41:06.258Z,99.90
2018-12-25T23:43:36.830Z,99.90
2018-12-25T23:46:09.165Z,99.90
2018-12-25T23:48:40.670Z,99.90
2018-12-25T23:51:11.140Z,99.90
2018-12-25T23:53:41.601Z,99.90
2018-12-25T23:56:24.321Z,99.90
2018-12-25T23:58:54.831Z,99.90
